Ana Sayfa
METAR-TAF:

METAR-TAF

Havaalanları :

Norrköping, İsveç

Enlem: 58-35N, Boylam: 016-09E, yükseklik: 34 m

Güncel hava durumu gözlemi

Rapor saat 04:20 UTC de 26 dakika önce yapıldı.
Rüzgar batı/güneybatıdan 6 kt
Sıcaklık 1°C
Nem 93%
Basınç 1007 hPa
Görüş mesafesi 10 km veya daha fazla

METAR: ESSP 010420Z AUTO 25006KT 9999 NCD 01/M00 Q1007

Saat: 06:46 (04:46 UTC)

Tahmin

Rapor saat 04:30 UTC de 16 dakika önce yapıldı.
Ayın 01'si saat 05 UTC'den ayın 01'si saat 12 UTC'ye kadar geçerli Tahmin
Rüzgar batıdan 8 kt
Görüş mesafesi 10 km veya daha fazla
1500 m altında bulut yok ve kümülonimbus yok

TAF: ESSP 010430Z 0105/0112 26008KT CAVOK

4.000'den fazla havaalanı için hava durumu gözlemleri ve tahminleri (METAR ve TAF raporları).

Kullanılabilir istasyonlar harita üzerinde sarı ve kırmızı noktalarla gösterilir.

İstasyonun adını görmek için fareyi noktanın üzerinde gezdirin.

Sonrasında hava gözlem ve tahminlerini görmek için tıklayın.

Haritayı değiştirmek için: yaklaştırmak için siyah artı işaretli yeşil düğmeye ve uzaklaştırmak için de eksi işaretli düğmeye hızla tıklayın; bitişik haritalar için yeşil okları kullanın.


METAR-TAF: